createdAt,value
2023-01-10T00:01:40.628Z,97049.28
2023-01-10T00:04:07.046Z,97049.97
2023-01-10T00:06:33.482Z,97045.19
2023-01-10T00:09:00.166Z,97047.97
2023-01-10T00:11:45.077Z,97047.28
2023-01-10T00:14:12.177Z,97040.91
2023-01-10T00:16:39.505Z,97044.47
2023-01-10T00:19:07.159Z,97064.84
2023-01-10T00:21:34.144Z,97063.72
2023-01-10T00:24:19.258Z,97063.00
2023-01-10T00:26:56.078Z,97097.75
2023-01-10T00:29:26.369Z,97107.56
2023-01-10T00:31:52.771Z,97115.09
2023-01-10T00:34:19.372Z,97101.22
2023-01-10T00:36:47.973Z,97141.19
2023-01-10T00:39:15.810Z,97153.63
2023-01-10T00:42:01.096Z,97165.28
2023-01-10T00:44:27.492Z,97173.16
2023-01-10T00:46:54.487Z,97196.09
2023-01-10T00:49:20.880Z,97201.72
2023-01-10T00:51:47.305Z,97211.53
2023-01-10T00:54:15.274Z,97221.66
2023-01-10T00:56:41.712Z,97233.28
2023-01-10T00:59:08.836Z,97228.84
2023-01-10T01:01:35.422Z,97237.69
2023-01-10T01:04:01.953Z,97236.13
2023-01-10T01:06:28.656Z,97251.63
2023-01-10T01:08:55.057Z,97254.34
2023-01-10T01:11:21.549Z,97246.69
2023-01-10T01:13:47.931Z,97262.13
2023-01-10T01:16:14.419Z,97279.47
2023-01-10T01:18:40.855Z,97247.25
2023-01-10T01:21:10.280Z,97272.28
2023-01-10T01:23:36.669Z,97265.78
2023-01-10T01:26:03.099Z,97277.53
2023-01-10T01:28:29.519Z,97284.13
2023-01-10T01:30:56.111Z,97307.66
2023-01-10T01:33:22.710Z,97311.78
2023-01-10T01:35:49.921Z,97316.34
2023-01-10T01:38:16.763Z,97321.75
2023-01-10T01:40:43.479Z,97331.69
2023-01-10T01:43:25.769Z,97358.84
2023-01-10T01:45:53.460Z,97357.44
2023-01-10T01:51:13.704Z,97380.31
2023-01-10T01:53:45.031Z,97384.91
2023-01-10T01:56:45.573Z,97395.56
2023-01-10T01:59:20.541Z,97396.78
2023-01-10T02:01:50.730Z,97384.88
2023-01-10T02:04:22.588Z,97407.28
2023-01-10T02:06:52.385Z,97372.25
2023-01-10T02:09:27.020Z,97406.63
2023-01-10T02:11:54.778Z,97377.03
2023-01-10T02:14:23.536Z,97332.13
2023-01-10T02:16:49.961Z,97403.16
2023-01-10T02:19:36.693Z,97432.50
2023-01-10T02:22:25.535Z,97433.09
2023-01-10T02:24:57.752Z,97438.34
2023-01-10T02:28:00.168Z,97434.06
2023-01-10T02:30:41.648Z,97459.31
2023-01-10T02:33:29.791Z,97451.47
2023-01-10T02:36:30.049Z,97448.84
2023-01-10T02:39:12.155Z,97446.88
2023-01-10T02:41:59.311Z,97469.22
2023-01-10T02:44:34.604Z,97472.81
2023-01-10T02:47:03.849Z,97470.78
2023-01-10T02:49:30.399Z,97488.84
2023-01-10T02:51:57.663Z,97498.22
2023-01-10T02:54:31.205Z,97515.63
2023-01-10T02:57:20.924Z,97523.31
2023-01-10T03:00:07.430Z,97538.50
2023-01-10T03:02:41.971Z,97544.03
2023-01-10T03:05:37.958Z,97540.97
2023-01-10T03:08:46.612Z,97544.97
2023-01-10T03:11:13.073Z,97556.81
2023-01-10T03:13:46.651Z,97559.59
2023-01-10T03:16:17.219Z,97561.00
2023-01-10T03:18:51.116Z,97566.38
2023-01-10T03:21:20.569Z,97565.41
2023-01-10T03:23:50.668Z,97575.75
2023-01-10T03:26:25.098Z,97589.28
2023-01-10T03:28:58.344Z,97592.31
2023-01-10T03:31:38.348Z,97582.81
2023-01-10T03:34:04.804Z,97599.78
2023-01-10T03:36:41.393Z,97608.94
2023-01-10T03:39:19.840Z,97615.53
2023-01-10T03:42:23.097Z,97606.41
2023-01-10T03:45:04.896Z,97611.44
2023-01-10T03:47:46.545Z,97624.06
2023-01-10T03:50:18.318Z,97625.34
2023-01-10T03:52:45.380Z,97636.38
2023-01-10T03:55:15.118Z,97639.00
2023-01-10T03:57:43.173Z,97649.66
2023-01-10T04:00:10.221Z,97642.75
2023-01-10T04:02:36.735Z,97650.75
2023-01-10T04:05:03.798Z,97647.44
2023-01-10T04:07:30.239Z,97639.88
2023-01-10T04:09:57.112Z,97642.38
2023-01-10T04:12:23.816Z,97649.78
2023-01-10T04:14:50.334Z,97666.91
2023-01-10T04:17:17.873Z,97675.88
2023-01-10T04:19:44.507Z,97674.91
2023-01-10T04:22:11.876Z,97677.69
2023-01-10T04:24:40.315Z,97678.25
2023-01-10T04:27:06.871Z,97691.88
2023-01-10T04:29:33.327Z,97697.28
2023-01-10T04:32:01.091Z,97702.22
2023-01-10T04:34:27.703Z,97675.75
2023-01-10T04:36:54.159Z,97725.03
2023-01-10T04:39:20.975Z,97735.91
2023-01-10T04:41:47.403Z,97738.38
2023-01-10T04:44:13.825Z,97748.59
2023-01-10T04:46:40.242Z,97752.72
2023-01-10T04:49:07.357Z,97758.69
2023-01-10T04:51:33.762Z,97774.13
2023-01-10T04:54:00.193Z,97780.09
2023-01-10T04:56:26.826Z,97786.00
2023-01-10T04:58:54.226Z,97784.78
2023-01-10T05:01:26.546Z,97798.84
2023-01-10T05:03:56.062Z,97801.06
2023-01-10T05:06:24.084Z,97799.97
2023-01-10T05:08:50.843Z,97799.69
2023-01-10T05:11:17.552Z,97801.06
2023-01-10T05:13:44.016Z,97813.75
2023-01-10T05:16:10.548Z,97805.19
2023-01-10T05:18:36.998Z,97811.50
2023-01-10T05:21:11.975Z,97812.75
2023-01-10T05:23:39.581Z,97809.00
2023-01-10T05:26:15.151Z,97809.81
2023-01-10T05:28:42.362Z,97808.41
2023-01-10T05:31:12.208Z,97803.72
2023-01-10T05:33:38.796Z,97799.00
2023-01-10T05:36:06.837Z,97799.16
2023-01-10T05:38:33.845Z,97807.81
2023-01-10T05:41:00.782Z,97816.91
2023-01-10T05:43:28.216Z,97807.81
2023-01-10T05:45:55.786Z,97828.59
2023-01-10T05:48:22.452Z,97811.34
2023-01-10T05:50:52.677Z,97839.09
2023-01-10T05:53:20.021Z,97837.03
2023-01-10T05:56:12.698Z,97839.81
2023-01-10T05:58:39.104Z,97844.75
2023-01-10T06:01:08.450Z,97840.31
2023-01-10T06:03:35.099Z,97861.03
2023-01-10T06:06:03.387Z,97870.25
2023-01-10T06:08:30.069Z,97883.78
2023-01-10T06:10:56.512Z,97891.91
2023-01-10T06:13:23.688Z,97896.91
2023-01-10T06:15:50.734Z,97906.69
2023-01-10T06:18:17.206Z,97911.22
2023-01-10T06:20:43.927Z,97923.19
2023-01-10T06:23:10.447Z,97927.28
2023-01-10T06:25:40.328Z,97943.69
2023-01-10T06:28:09.030Z,97953.06
2023-01-10T06:30:35.441Z,97961.56
2023-01-10T06:33:06.188Z,97973.72
2023-01-10T06:35:33.419Z,97977.72
2023-01-10T06:37:59.909Z,97985.03
2023-01-10T06:40:26.939Z,97975.41
2023-01-10T06:42:53.412Z,97988.09
2023-01-10T06:45:19.985Z,97996.84
2023-01-10T06:47:46.608Z,98004.94
2023-01-10T06:50:13.796Z,97973.31
2023-01-10T06:52:40.809Z,97987.75
2023-01-10T06:55:11.337Z,98040.88
2023-01-10T06:57:38.520Z,98020.91
2023-01-10T07:00:07.912Z,98022.78
2023-01-10T07:02:34.351Z,98044.00
2023-01-10T07:05:00.791Z,98047.31
2023-01-10T07:07:27.229Z,98048.44
2023-01-10T07:09:53.649Z,98050.81
2023-01-10T07:12:20.073Z,98052.94
2023-01-10T07:14:46.479Z,98069.63
2023-01-10T07:17:12.905Z,98076.72
2023-01-10T07:19:40.555Z,98076.28
2023-01-10T07:22:06.991Z,98097.91
2023-01-10T07:24:34.324Z,98101.84
2023-01-10T07:27:00.740Z,98103.97
2023-01-10T07:29:27.133Z,98112.69
2023-01-10T07:31:53.939Z,98120.00
2023-01-10T07:34:20.353Z,98125.47
2023-01-10T07:36:46.776Z,98135.25
2023-01-10T07:39:13.407Z,98142.59
2023-01-10T07:41:39.899Z,98148.41
2023-01-10T07:44:06.429Z,98153.66
2023-01-10T07:46:33.091Z,98142.41
2023-01-10T07:48:59.585Z,98169.06
2023-01-10T07:51:26.000Z,98158.84
2023-01-10T07:53:52.451Z,98147.50
2023-01-10T07:56:18.884Z,98161.66
2023-01-10T07:58:47.489Z,98163.69
2023-01-10T08:01:14.001Z,98164.97
2023-01-10T08:03:40.559Z,98172.22
2023-01-10T08:06:12.143Z,98173.38
2023-01-10T08:08:39.030Z,98184.19
2023-01-10T08:11:05.991Z,98187.69
2023-01-10T08:13:34.522Z,98163.84
2023-01-10T08:16:06.416Z,98177.41
2023-01-10T08:18:33.286Z,98192.13
2023-01-10T08:21:00.911Z,98179.03
2023-01-10T08:23:27.541Z,98166.59
2023-01-10T08:25:55.183Z,98184.03
2023-01-10T08:28:21.624Z,98194.78
2023-01-10T08:30:50.387Z,98185.09
2023-01-10T08:33:17.041Z,98210.13
2023-01-10T08:35:43.884Z,98198.91
2023-01-10T08:38:11.681Z,98229.56
2023-01-10T08:40:38.975Z,98229.13
2023-01-10T08:43:10.740Z,98245.13
2023-01-10T08:45:38.097Z,98244.97
2023-01-10T08:48:05.698Z,98251.78
2023-01-10T08:50:32.525Z,98258.22
2023-01-10T08:52:59.615Z,98247.09
2023-01-10T08:55:26.436Z,98256.75
2023-01-10T08:57:53.277Z,98251.00
2023-01-10T09:00:20.040Z,98255.16
2023-01-10T09:02:46.685Z,98258.81
2023-01-10T09:05:26.266Z,98278.19
2023-01-10T09:07:57.585Z,98272.66
2023-01-10T09:10:24.033Z,98279.22
2023-01-10T09:12:56.257Z,98285.06
2023-01-10T09:15:24.335Z,98253.22
2023-01-10T09:17:54.774Z,98253.44
2023-01-10T09:20:21.755Z,98255.88
2023-01-10T09:22:48.226Z,98239.06
2023-01-10T09:25:14.785Z,98236.72
2023-01-10T09:27:41.447Z,98243.25
2023-01-10T09:30:08.567Z,98250.28
2023-01-10T09:32:35.055Z,98266.63
2023-01-10T09:35:01.551Z,98282.06
2023-01-10T09:37:28.000Z,98292.59
2023-01-10T09:39:54.405Z,98316.81
2023-01-10T09:42:45.237Z,98316.75
2023-01-10T09:45:30.461Z,98334.16
2023-01-10T09:48:05.624Z,98335.75
2023-01-10T09:50:42.723Z,98347.59
2023-01-10T09:53:21.365Z,98361.13
2023-01-10T09:55:55.044Z,98367.59
2023-01-10T09:58:24.219Z,98368.88
2023-01-10T10:00:56.639Z,98373.53
2023-01-10T10:03:31.512Z,98379.31
2023-01-10T10:06:10.912Z,98376.53
2023-01-10T10:08:40.431Z,98347.03
2023-01-10T10:11:25.289Z,98372.34
2023-01-10T10:13:58.643Z,98360.50
2023-01-10T10:16:54.019Z,98349.78
2023-01-10T10:19:26.079Z,98360.50
2023-01-10T10:22:11.271Z,98361.69
2023-01-10T10:24:40.621Z,98355.03
2023-01-10T10:27:23.920Z,98369.72
2023-01-10T10:30:16.098Z,98367.56
2023-01-10T10:32:54.678Z,98360.16
2023-01-10T10:35:24.323Z,98360.59
2023-01-10T10:37:53.493Z,98376.25
2023-01-10T10:40:27.101Z,98360.59
2023-01-10T10:42:56.173Z,98381.84
2023-01-10T10:45:44.490Z,98380.81
2023-01-10T10:48:24.172Z,98369.47
2023-01-10T10:51:02.922Z,98361.44
2023-01-10T10:53:31.779Z,98364.75
2023-01-10T10:56:00.007Z,98372.47
2023-01-10T10:58:31.111Z,98358.34
2023-01-10T11:00:58.910Z,98357.53
2023-01-10T11:03:42.767Z,98362.78
2023-01-10T11:06:10.176Z,98361.69
2023-01-10T11:08:42.068Z,98380.00
2023-01-10T11:11:21.016Z,98358.63
2023-01-10T11:13:51.240Z,98384.81
2023-01-10T11:16:30.671Z,98245.00
2023-01-10T11:19:26.819Z,98386.25
2023-01-10T11:22:02.557Z,98378.09
2023-01-10T11:24:39.428Z,98395.72
2023-01-10T11:27:18.067Z,98402.63
2023-01-10T11:29:59.193Z,98405.88
2023-01-10T11:32:39.316Z,98404.34
2023-01-10T11:35:22.014Z,98355.03
2023-01-10T11:38:19.587Z,98389.22
2023-01-10T11:41:09.456Z,98403.09
2023-01-10T11:43:41.146Z,98407.63
2023-01-10T11:46:16.303Z,98403.59
2023-01-10T11:49:05.643Z,98373.63
2023-01-10T11:51:39.662Z,98406.69
2023-01-10T11:54:17.339Z,98397.31
2023-01-10T11:56:54.260Z,98402.97
2023-01-10T11:59:20.870Z,98412.81
2023-01-10T12:02:21.879Z,98412.88
2023-01-10T12:04:50.425Z,98399.94
2023-01-10T12:07:19.228Z,98413.47
2023-01-10T12:10:01.140Z,98410.13
2023-01-10T12:12:35.250Z,98406.41
2023-01-10T12:15:22.943Z,98405.84
2023-01-10T12:17:50.118Z,98410.44
2023-01-10T12:20:18.953Z,98416.50
2023-01-10T12:23:13.408Z,98426.59
2023-01-10T12:25:42.019Z,98430.56
2023-01-10T12:28:21.753Z,98420.88
2023-01-10T12:30:51.742Z,98415.00
2023-01-10T12:33:38.785Z,98427.94
2023-01-10T12:36:23.620Z,98431.94
2023-01-10T12:39:14.159Z,98427.56
2023-01-10T12:42:28.901Z,98425.66
2023-01-10T12:45:01.547Z,98447.63
2023-01-10T12:47:35.200Z,98442.31
2023-01-10T12:50:01.719Z,98441.63
2023-01-10T12:52:37.151Z,98436.16
2023-01-10T12:55:03.825Z,98454.41
2023-01-10T12:57:39.715Z,98447.31
2023-01-10T13:00:19.103Z,98460.00
2023-01-10T13:02:47.863Z,98463.56
2023-01-10T13:05:23.908Z,98457.06
2023-01-10T13:07:54.827Z,98443.69
2023-01-10T13:10:24.566Z,98444.28
2023-01-10T13:13:01.755Z,98443.22
2023-01-10T13:15:41.945Z,98429.84
2023-01-10T13:18:23.043Z,98435.22
2023-01-10T13:21:01.875Z,98421.97
2023-01-10T13:23:33.953Z,98422.16
2023-01-10T13:26:05.039Z,98424.88
2023-01-10T13:28:34.603Z,98419.13
2023-01-10T13:31:04.565Z,98423.31
2023-01-10T13:33:50.425Z,98402.91
2023-01-10T13:36:25.548Z,98415.03
2023-01-10T13:38:58.795Z,98405.28
2023-01-10T13:42:18.465Z,98400.75
2023-01-10T13:45:23.363Z,98394.81
2023-01-10T13:47:54.648Z,98394.00
2023-01-10T13:50:27.457Z,98407.91
2023-01-10T13:53:14.917Z,98400.69
2023-01-10T13:55:46.488Z,98410.94
2023-01-10T13:58:15.999Z,98407.50
2023-01-10T14:01:13.692Z,98413.91
2023-01-10T14:03:42.852Z,98413.06
2023-01-10T14:06:29.416Z,98427.44
2023-01-10T14:09:04.700Z,98419.47
2023-01-10T14:11:43.209Z,98433.63
2023-01-10T14:14:25.761Z,98427.94
2023-01-10T14:16:56.881Z,98447.91
2023-01-10T14:19:32.276Z,98437.66
2023-01-10T14:22:01.670Z,98451.09
2023-01-10T14:24:35.711Z,98450.25
2023-01-10T14:27:03.443Z,98447.00
2023-01-10T14:29:33.989Z,98395.91
2023-01-10T14:32:01.052Z,98441.16
2023-01-10T14:34:36.762Z,98439.41
2023-01-10T14:37:19.753Z,98431.03
2023-01-10T14:39:48.024Z,98440.13
2023-01-10T14:42:17.797Z,98436.44
2023-01-10T14:45:17.045Z,98436.28
2023-01-10T14:47:43.527Z,98435.69
2023-01-10T14:50:27.717Z,98424.00
2023-01-10T14:52:56.114Z,98437.50
2023-01-10T14:55:22.690Z,98418.16
2023-01-10T14:57:56.061Z,98428.16
2023-01-10T15:00:30.073Z,98437.38
2023-01-10T15:02:59.141Z,98427.00
2023-01-10T15:05:27.682Z,98406.84
2023-01-10T15:07:55.552Z,98409.78
2023-01-10T15:10:30.155Z,98426.19
2023-01-10T15:13:01.688Z,98415.81
2023-01-10T15:15:40.383Z,98404.09
2023-01-10T15:18:29.253Z,98418.06
2023-01-10T15:20:57.207Z,98416.97
2023-01-10T15:23:27.320Z,98420.78
2023-01-10T15:25:59.499Z,98412.91
2023-01-10T15:28:28.076Z,98415.81
2023-01-10T15:30:55.119Z,98416.50
2023-01-10T15:33:29.376Z,98424.38
2023-01-10T15:35:57.860Z,98415.22
2023-01-10T15:38:30.231Z,98420.91
2023-01-10T15:41:02.426Z,98421.56
2023-01-10T15:43:30.994Z,98422.94
2023-01-10T15:45:59.511Z,98410.69
2023-01-10T15:48:34.803Z,98427.41
2023-01-10T15:51:14.048Z,98414.63
2023-01-10T15:53:50.660Z,98403.69
2023-01-10T15:56:20.966Z,98429.81
2023-01-10T15:58:48.025Z,98423.72
2023-01-10T16:01:15.671Z,98426.13
2023-01-10T16:03:48.681Z,98434.22
2023-01-10T16:06:35.875Z,98404.06
2023-01-10T16:09:07.149Z,98428.75
2023-01-10T16:12:09.331Z,98430.53
2023-01-10T16:14:35.876Z,98426.59
2023-01-10T16:17:03.864Z,98425.28
2023-01-10T16:19:30.442Z,98433.00
2023-01-10T16:21:58.953Z,98424.97
2023-01-10T16:24:28.307Z,98420.44
2023-01-10T16:26:56.625Z,98399.69
2023-01-10T16:29:24.311Z,98414.69
2023-01-10T16:31:52.361Z,98423.53
2023-01-10T16:34:19.668Z,98413.25
2023-01-10T16:36:46.426Z,98392.28
2023-01-10T16:39:18.946Z,98409.69
2023-01-10T16:42:05.132Z,98407.78
2023-01-10T16:44:32.756Z,98408.50
2023-01-10T16:46:59.576Z,98417.34
2023-01-10T16:49:26.457Z,98403.84
2023-01-10T16:51:53.903Z,98404.94
2023-01-10T16:54:22.573Z,98410.19
2023-01-10T16:56:49.460Z,98402.84
2023-01-10T16:59:18.007Z,98402.56
2023-01-10T17:01:48.867Z,98411.97
2023-01-10T17:04:22.985Z,98405.69
2023-01-10T17:06:50.144Z,98412.56
2023-01-10T17:09:29.004Z,98409.13
2023-01-10T17:12:02.450Z,98413.28
2023-01-10T17:14:35.153Z,98414.72
2023-01-10T17:17:04.840Z,98385.81
2023-01-10T17:19:31.679Z,98404.94
2023-01-10T17:21:58.299Z,98411.41
2023-01-10T17:24:24.806Z,98404.47
2023-01-10T17:26:51.509Z,98393.91
2023-01-10T17:29:17.933Z,98406.41
2023-01-10T17:31:44.455Z,98395.19
2023-01-10T17:34:10.894Z,98392.81
2023-01-10T17:36:39.544Z,98398.31
2023-01-10T17:39:07.142Z,98344.72
2023-01-10T17:41:33.850Z,98386.72
2023-01-10T17:44:00.275Z,98379.56
2023-01-10T17:46:26.930Z,98382.81
2023-01-10T17:48:53.446Z,98372.78
2023-01-10T17:51:19.859Z,98380.66
2023-01-10T17:53:46.247Z,98390.66
2023-01-10T17:56:13.214Z,98385.91
2023-01-10T17:58:39.883Z,98386.63
2023-01-10T18:01:06.711Z,98378.72
2023-01-10T18:03:33.474Z,98382.56
2023-01-10T18:05:59.836Z,98356.25
2023-01-10T18:08:26.577Z,98335.88
2023-01-10T18:10:59.157Z,98363.38
2023-01-10T18:13:28.680Z,98360.41
2023-01-10T18:15:55.044Z,98370.91
2023-01-10T18:18:23.045Z,98366.13
2023-01-10T18:20:50.296Z,98357.06
2023-01-10T18:23:23.066Z,98375.19
2023-01-10T18:25:59.991Z,98372.56
2023-01-10T18:28:40.074Z,98374.47
2023-01-10T18:31:09.791Z,98358.25
2023-01-10T18:33:36.238Z,98351.69
2023-01-10T18:36:06.947Z,98362.75
2023-01-10T18:38:34.899Z,98353.25
2023-01-10T18:41:01.822Z,98354.44
2023-01-10T18:43:29.799Z,98358.59
2023-01-10T18:46:02.156Z,98357.28
2023-01-10T18:48:28.970Z,98347.03
2023-01-10T18:50:58.457Z,98345.84
2023-01-10T18:53:24.940Z,98338.97
2023-01-10T18:55:54.172Z,98361.72
2023-01-10T18:58:23.608Z,98353.03
2023-01-10T19:00:50.291Z,98345.38
2023-01-10T19:03:18.320Z,98351.34
2023-01-10T19:05:44.843Z,98332.75
2023-01-10T19:08:13.168Z,98329.75
2023-01-10T19:11:03.611Z,98320.13
2023-01-10T19:13:29.766Z,98320.34
2023-01-10T19:16:08.477Z,98316.09
2023-01-10T19:18:35.109Z,98325.59
2023-01-10T19:21:01.480Z,98303.09
2023-01-10T19:23:27.857Z,98315.13
2023-01-10T19:25:57.865Z,98298.22
2023-01-10T19:28:24.259Z,98302.13
2023-01-10T19:31:03.501Z,98306.91
2023-01-10T19:33:31.470Z,98305.22
2023-01-10T19:35:57.849Z,98304.63
2023-01-10T19:38:24.256Z,98303.81
2023-01-10T19:40:52.326Z,98296.66
2023-01-10T19:43:19.580Z,98315.38
2023-01-10T19:45:45.926Z,98301.31
2023-01-10T19:48:12.339Z,98303.53
2023-01-10T19:50:38.734Z,98294.13
2023-01-10T19:53:05.140Z,98302.00
2023-01-10T19:55:32.572Z,98284.50
2023-01-10T19:57:59.302Z,98297.59
2023-01-10T20:00:26.059Z,98302.75
2023-01-10T20:02:52.569Z,98300.56
2023-01-10T20:05:19.043Z,98315.72
2023-01-10T20:07:49.679Z,98310.81
2023-01-10T20:10:16.528Z,98318.31
2023-01-10T20:12:43.551Z,98305.94
2023-01-10T20:15:10.563Z,98305.72
2023-01-10T20:17:37.815Z,98310.94
2023-01-10T20:20:04.335Z,98313.09
2023-01-10T20:22:30.817Z,98316.56
2023-01-10T20:24:58.256Z,98300.16
2023-01-10T20:27:24.655Z,98259.69
2023-01-10T20:29:51.095Z,98263.25
2023-01-10T20:32:19.590Z,98261.38
2023-01-10T20:34:47.415Z,98258.00
2023-01-10T20:37:14.371Z,98242.19
2023-01-10T20:39:40.862Z,98234.94
2023-01-10T20:42:07.265Z,98228.03
2023-01-10T20:44:34.500Z,98216.59
2023-01-10T20:47:01.015Z,98203.06
2023-01-10T20:49:27.405Z,98192.81
2023-01-10T20:51:54.322Z,98183.50
2023-01-10T20:54:20.764Z,98174.47
2023-01-10T20:56:47.241Z,98164.25
2023-01-10T20:59:13.703Z,98154.72
2023-01-10T21:01:40.167Z,98136.16
2023-01-10T21:04:08.231Z,98120.81
2023-01-10T21:06:36.040Z,98113.78
2023-01-10T21:09:04.039Z,98119.25
2023-01-10T21:11:30.564Z,98103.41
2023-01-10T21:13:56.993Z,98098.78
2023-01-10T21:16:24.082Z,98096.84
2023-01-10T21:18:52.164Z,98102.78
2023-01-10T21:21:22.715Z,98077.13
2023-01-10T21:23:49.660Z,98078.78
2023-01-10T21:26:16.383Z,98085.78
2023-01-10T21:28:48.508Z,98067.09
2023-01-10T21:31:20.149Z,98059.00
2023-01-10T21:33:49.556Z,98059.94
2023-01-10T21:36:16.103Z,98044.59
2023-01-10T21:38:42.940Z,98042.31
2023-01-10T21:41:13.417Z,98031.97
2023-01-10T21:43:44.260Z,98039.59
2023-01-10T21:46:11.825Z,98022.78
2023-01-10T21:48:38.283Z,98005.09
2023-01-10T21:51:04.745Z,98026.69
2023-01-10T21:53:31.143Z,98013.94
2023-01-10T21:55:59.769Z,98019.19
2023-01-10T21:58:26.220Z,97996.84
2023-01-10T22:00:58.927Z,98024.06
2023-01-10T22:03:25.799Z,98023.00
2023-01-10T22:05:52.272Z,98024.78
2023-01-10T22:08:18.727Z,98036.09
2023-01-10T22:10:45.124Z,98027.97
2023-01-10T22:13:11.499Z,98037.38
2023-01-10T22:15:37.938Z,98019.53
2023-01-10T22:18:04.473Z,98023.19
2023-01-10T22:20:30.874Z,98027.34
2023-01-10T22:22:57.818Z,98025.66
2023-01-10T22:25:24.192Z,98026.75
2023-01-10T22:27:50.619Z,98014.59
2023-01-10T22:30:17.313Z,98031.50
2023-01-10T22:32:43.920Z,98013.22
2023-01-10T22:35:13.763Z,98009.91
2023-01-10T22:37:41.137Z,98016.47
2023-01-10T22:40:08.385Z,98012.19
2023-01-10T22:42:34.797Z,98008.34
2023-01-10T22:45:01.317Z,98040.06
2023-01-10T22:47:27.721Z,97996.91
2023-01-10T22:49:54.114Z,97970.84
2023-01-10T22:52:20.475Z,97984.84
2023-01-10T22:54:46.909Z,97977.53
2023-01-10T22:57:14.373Z,97971.50
2023-01-10T22:59:40.892Z,97936.41
2023-01-10T23:02:07.308Z,97942.53
2023-01-10T23:04:33.734Z,97924.91
2023-01-10T23:07:03.234Z,97919.41
2023-01-10T23:09:29.681Z,97912.25
2023-01-10T23:11:56.050Z,97909.50
2023-01-10T23:14:23.224Z,97899.28
2023-01-10T23:16:49.663Z,97899.97
2023-01-10T23:19:16.147Z,97895.72
2023-01-10T23:21:42.668Z,97887.16
2023-01-10T23:24:09.093Z,97893.91
2023-01-10T23:26:35.475Z,97887.72
2023-01-10T23:29:01.970Z,97891.75
2023-01-10T23:31:29.990Z,97888.34
2023-01-10T23:33:56.809Z,97862.66
2023-01-10T23:36:24.043Z,97876.75
2023-01-10T23:38:50.868Z,97870.91
2023-01-10T23:41:21.014Z,97878.56
2023-01-10T23:43:51.815Z,97877.47
2023-01-10T23:46:20.173Z,97877.59
2023-01-10T23:48:49.050Z,97881.84
2023-01-10T23:51:15.527Z,97886.75
2023-01-10T23:53:42.592Z,97889.78
2023-01-10T23:56:11.476Z,97823.19
2023-01-10T23:58:39.270Z,97883.44
